sensor_id;sensor_type;location;lat;lon;timestamp;pressure;altitude;pressure_sealevel;temperature;humidity
16777;BME280;8505;49.456;8.164;2023-04-21T00:01:36;99447.41;;;6.87;87.31
16777;BME280;8505;49.456;8.164;2023-04-21T00:04:04;99441.31;;;6.87;87.50
16777;BME280;8505;49.456;8.164;2023-04-21T00:06:33;99437.81;;;6.78;87.71
16777;BME280;8505;49.456;8.164;2023-04-21T00:09:02;99439.03;;;6.92;87.54
16777;BME280;8505;49.456;8.164;2023-04-21T00:11:30;99444.28;;;6.92;86.82
16777;BME280;8505;49.456;8.164;2023-04-21T00:13:58;99443.28;;;6.85;86.60
16777;BME280;8505;49.456;8.164;2023-04-21T00:16:26;99440.88;;;6.74;87.01
16777;BME280;8505;49.456;8.164;2023-04-21T00:18:55;99443.69;;;6.72;87.14
16777;BME280;8505;49.456;8.164;2023-04-21T00:21:23;99444.47;;;6.65;86.85
16777;BME280;8505;49.456;8.164;2023-04-21T00:23:51;99438.72;;;6.69;86.53
16777;BME280;8505;49.456;8.164;2023-04-21T00:26:18;99442.47;;;6.67;86.67
16777;BME280;8505;49.456;8.164;2023-04-21T00:28:46;99438.84;;;6.60;86.31
16777;BME280;8505;49.456;8.164;2023-04-21T00:31:14;99431.97;;;6.41;86.81
16777;BME280;8505;49.456;8.164;2023-04-21T00:33:42;99445.16;;;6.31;87.76
16777;BME280;8505;49.456;8.164;2023-04-21T00:36:11;99440.88;;;6.30;88.36
16777;BME280;8505;49.456;8.164;2023-04-21T00:38:39;99432.59;;;6.17;88.53
16777;BME280;8505;49.456;8.164;2023-04-21T00:41:06;99432.28;;;6.02;88.99
16777;BME280;8505;49.456;8.164;2023-04-21T00:43:34;99434.56;;;5.88;89.86
16777;BME280;8505;49.456;8.164;2023-04-21T00:46:02;99437.22;;;5.88;90.64
16777;BME280;8505;49.456;8.164;2023-04-21T00:48:30;99425.53;;;5.73;91.07
16777;BME280;8505;49.456;8.164;2023-04-21T00:50:58;99428.75;;;5.66;91.33
16777;BME280;8505;49.456;8.164;2023-04-21T00:53:27;99421.84;;;5.65;91.75
16777;BME280;8505;49.456;8.164;2023-04-21T00:55:55;99424.50;;;5.56;92.45
16777;BME280;8505;49.456;8.164;2023-04-21T00:58:23;99426.63;;;5.52;93.32
16777;BME280;8505;49.456;8.164;2023-04-21T01:00:50;99422.16;;;5.35;93.64
16777;BME280;8505;49.456;8.164;2023-04-21T01:03:18;99425.75;;;5.34;94.42
16777;BME280;8505;49.456;8.164;2023-04-21T01:05:46;99414.88;;;5.29;94.29
16777;BME280;8505;49.456;8.164;2023-04-21T01:08:14;99419.72;;;5.24;94.64
16777;BME280;8505;49.456;8.164;2023-04-21T01:10:43;99416.03;;;5.17;94.88
16777;BME280;8505;49.456;8.164;2023-04-21T01:13:11;99419.69;;;4.97;96.04
16777;BME280;8505;49.456;8.164;2023-04-21T01:15:39;99426.56;;;5.07;96.44
16777;BME280;8505;49.456;8.164;2023-04-21T01:18:07;99426.28;;;5.01;96.63
16777;BME280;8505;49.456;8.164;2023-04-21T01:20:35;99428.75;;;5.12;96.82
16777;BME280;8505;49.456;8.164;2023-04-21T01:23:05;99426.22;;;5.20;96.99
16777;BME280;8505;49.456;8.164;2023-04-21T01:25:33;99424.56;;;5.19;96.80
16777;BME280;8505;49.456;8.164;2023-04-21T01:28:01;99418.34;;;5.20;96.32
16777;BME280;8505;49.456;8.164;2023-04-21T01:30:29;99425.13;;;5.22;96.27
16777;BME280;8505;49.456;8.164;2023-04-21T01:32:56;99418.31;;;5.29;96.44
16777;BME280;8505;49.456;8.164;2023-04-21T01:35:26;99427.59;;;5.24;95.82
16777;BME280;8505;49.456;8.164;2023-04-21T01:37:53;99422.88;;;5.27;96.08
16777;BME280;8505;49.456;8.164;2023-04-21T01:40:22;99412.19;;;5.39;95.83
16777;BME280;8505;49.456;8.164;2023-04-21T01:42:50;99417.78;;;5.26;95.47
16777;BME280;8505;49.456;8.164;2023-04-21T01:45:18;99421.78;;;5.30;95.68
16777;BME280;8505;49.456;8.164;2023-04-21T01:47:46;99422.75;;;5.29;95.74
16777;BME280;8505;49.456;8.164;2023-04-21T01:50:13;99412.69;;;5.24;95.54
16777;BME280;8505;49.456;8.164;2023-04-21T01:52:41;99419.31;;;5.19;95.34
16777;BME280;8505;49.456;8.164;2023-04-21T01:55:09;99419.19;;;5.20;95.31
16777;BME280;8505;49.456;8.164;2023-04-21T01:57:38;99420.19;;;5.10;95.92
16777;BME280;8505;49.456;8.164;2023-04-21T02:00:07;99414.94;;;5.10;95.71
16777;BME280;8505;49.456;8.164;2023-04-21T02:02:35;99419.25;;;5.01;95.64
16777;BME280;8505;49.456;8.164;2023-04-21T02:05:04;99416.25;;;4.96;95.96
16777;BME280;8505;49.456;8.164;2023-04-21T02:07:32;99416.09;;;4.98;96.29
16777;BME280;8505;49.456;8.164;2023-04-21T02:10:00;99414.44;;;4.97;96.05
16777;BME280;8505;49.456;8.164;2023-04-21T02:12:28;99417.56;;;5.10;95.64
16777;BME280;8505;49.456;8.164;2023-04-21T02:14:57;99415.91;;;5.09;95.96
16777;BME280;8505;49.456;8.164;2023-04-21T02:17:25;99428.19;;;5.18;95.80
16777;BME280;8505;49.456;8.164;2023-04-21T02:19:53;99422.44;;;5.05;95.35
16777;BME280;8505;49.456;8.164;2023-04-21T02:22:20;99426.81;;;5.14;96.11
16777;BME280;8505;49.456;8.164;2023-04-21T02:24:48;99421.66;;;5.22;95.23
16777;BME280;8505;49.456;8.164;2023-04-21T02:27:16;99426.41;;;5.18;95.48
16777;BME280;8505;49.456;8.164;2023-04-21T02:29:44;99426.91;;;5.22;95.36
16777;BME280;8505;49.456;8.164;2023-04-21T02:32:13;99427.59;;;5.24;95.41
16777;BME280;8505;49.456;8.164;2023-04-21T02:34:51;99426.59;;;5.35;95.06
16777;BME280;8505;49.456;8.164;2023-04-21T02:37:19;99429.13;;;5.44;95.60
16777;BME280;8505;49.456;8.164;2023-04-21T02:39:47;99428.06;;;5.37;94.56
16777;BME280;8505;49.456;8.164;2023-04-21T02:42:15;99428.25;;;5.26;96.33
16777;BME280;8505;49.456;8.164;2023-04-21T02:44:42;99430.03;;;5.35;97.84
16777;BME280;8505;49.456;8.164;2023-04-21T02:47:10;99430.59;;;5.56;98.19
16777;BME280;8505;49.456;8.164;2023-04-21T02:49:42;99430.50;;;5.21;95.17
16777;BME280;8505;49.456;8.164;2023-04-21T02:52:10;99439.66;;;5.17;96.28
16777;BME280;8505;49.456;8.164;2023-04-21T02:54:38;99441.63;;;5.42;97.33
16777;BME280;8505;49.456;8.164;2023-04-21T02:57:06;99437.97;;;5.98;97.19
16777;BME280;8505;49.456;8.164;2023-04-21T02:59:34;99438.59;;;5.82;96.37
16777;BME280;8505;49.456;8.164;2023-04-21T03:02:01;99447.16;;;5.66;96.50
16777;BME280;8505;49.456;8.164;2023-04-21T03:04:29;99450.16;;;5.72;95.20
16777;BME280;8505;49.456;8.164;2023-04-21T03:07:00;99455.69;;;5.96;95.36
16777;BME280;8505;49.456;8.164;2023-04-21T03:09:28;99456.47;;;5.79;94.08
16777;BME280;8505;49.456;8.164;2023-04-21T03:11:56;99445.78;;;6.25;93.85
16777;BME280;8505;49.456;8.164;2023-04-21T03:14:23;99444.06;;;5.98;94.59
16777;BME280;8505;49.456;8.164;2023-04-21T03:16:51;99440.91;;;6.48;94.47
16777;BME280;8505;49.456;8.164;2023-04-21T03:19:19;99441.56;;;6.76;91.62
16777;BME280;8505;49.456;8.164;2023-04-21T03:21:47;99440.44;;;6.78;89.88
16777;BME280;8505;49.456;8.164;2023-04-21T03:24:16;99432.84;;;6.75;90.67
16777;BME280;8505;49.456;8.164;2023-04-21T03:26:44;99432.72;;;6.77;91.16
16777;BME280;8505;49.456;8.164;2023-04-21T03:29:12;99433.78;;;6.66;91.36
16777;BME280;8505;49.456;8.164;2023-04-21T03:31:40;99432.91;;;6.83;90.31
16777;BME280;8505;49.456;8.164;2023-04-21T03:34:08;99432.09;;;6.83;89.73
16777;BME280;8505;49.456;8.164;2023-04-21T03:36:36;99426.69;;;6.93;89.48
16777;BME280;8505;49.456;8.164;2023-04-21T03:39:03;99424.25;;;6.65;89.72
16777;BME280;8505;49.456;8.164;2023-04-21T03:41:47;99420.88;;;6.55;90.39
16777;BME280;8505;49.456;8.164;2023-04-21T03:44:15;99412.22;;;6.88;89.81
16777;BME280;8505;49.456;8.164;2023-04-21T03:46:43;99411.25;;;6.89;89.91
16777;BME280;8505;49.456;8.164;2023-04-21T03:49:10;99416.06;;;6.50;90.26
16777;BME280;8505;49.456;8.164;2023-04-21T03:51:38;99407.78;;;6.89;89.38
16777;BME280;8505;49.456;8.164;2023-04-21T03:54:06;99408.28;;;6.67;89.98
16777;BME280;8505;49.456;8.164;2023-04-21T03:56:34;99411.13;;;6.30;90.01
16777;BME280;8505;49.456;8.164;2023-04-21T03:59:03;99420.47;;;6.24;91.17
16777;BME280;8505;49.456;8.164;2023-04-21T04:01:32;99418.53;;;5.91;93.17
16777;BME280;8505;49.456;8.164;2023-04-21T04:04:00;99413.00;;;5.84;94.11
16777;BME280;8505;49.456;8.164;2023-04-21T04:06:29;99417.97;;;5.87;94.53
16777;BME280;8505;49.456;8.164;2023-04-21T04:08:57;99420.53;;;6.32;93.60
16777;BME280;8505;49.456;8.164;2023-04-21T04:11:28;99417.06;;;6.75;90.08
16777;BME280;8505;49.456;8.164;2023-04-21T04:13:56;99410.97;;;6.75;89.55
16777;BME280;8505;49.456;8.164;2023-04-21T04:16:25;99419.50;;;6.69;89.70
16777;BME280;8505;49.456;8.164;2023-04-21T04:18:54;99419.06;;;6.56;90.75
16777;BME280;8505;49.456;8.164;2023-04-21T04:21:22;99420.09;;;6.19;91.59
16777;BME280;8505;49.456;8.164;2023-04-21T04:23:50;99414.19;;;6.43;92.55
16777;BME280;8505;49.456;8.164;2023-04-21T04:26:19;99415.59;;;6.55;90.66
16777;BME280;8505;49.456;8.164;2023-04-21T04:28:48;99405.00;;;6.65;90.05
16777;BME280;8505;49.456;8.164;2023-04-21T04:31:16;99401.72;;;6.45;90.52
16777;BME280;8505;49.456;8.164;2023-04-21T04:33:45;99396.56;;;6.61;91.43
16777;BME280;8505;49.456;8.164;2023-04-21T04:36:13;99399.56;;;6.40;90.48
16777;BME280;8505;49.456;8.164;2023-04-21T04:38:41;99406.50;;;6.41;91.56
16777;BME280;8505;49.456;8.164;2023-04-21T04:41:09;99411.38;;;6.62;92.13
16777;BME280;8505;49.456;8.164;2023-04-21T04:43:38;99404.06;;;6.30;91.49
16777;BME280;8505;49.456;8.164;2023-04-21T04:46:06;99415.44;;;6.13;93.20
16777;BME280;8505;49.456;8.164;2023-04-21T04:48:34;99419.25;;;6.54;91.62
16777;BME280;8505;49.456;8.164;2023-04-21T04:51:04;99412.72;;;6.40;91.73
16777;BME280;8505;49.456;8.164;2023-04-21T04:53:32;99413.28;;;6.08;92.27
16777;BME280;8505;49.456;8.164;2023-04-21T04:56:00;99424.16;;;6.14;92.83
16777;BME280;8505;49.456;8.164;2023-04-21T04:58:28;99428.06;;;5.92;91.57
16777;BME280;8505;49.456;8.164;2023-04-21T05:00:56;99429.19;;;5.89;92.75
16777;BME280;8505;49.456;8.164;2023-04-21T05:03:24;99434.06;;;6.02;92.72
16777;BME280;8505;49.456;8.164;2023-04-21T05:05:52;99438.63;;;6.00;92.91
16777;BME280;8505;49.456;8.164;2023-04-21T05:08:21;99432.47;;;6.44;91.05
16777;BME280;8505;49.456;8.164;2023-04-21T05:10:48;99420.59;;;6.40;89.61
16777;BME280;8505;49.456;8.164;2023-04-21T05:13:16;99416.22;;;6.49;89.82
16777;BME280;8505;49.456;8.164;2023-04-21T05:15:44;99419.59;;;6.16;91.26
16777;BME280;8505;49.456;8.164;2023-04-21T05:18:12;99431.91;;;6.15;91.69
16777;BME280;8505;49.456;8.164;2023-04-21T05:20:40;99437.91;;;5.90;92.49
16777;BME280;8505;49.456;8.164;2023-04-21T05:23:07;99440.22;;;5.93;93.98
16777;BME280;8505;49.456;8.164;2023-04-21T05:25:37;99441.06;;;6.29;92.92
16777;BME280;8505;49.456;8.164;2023-04-21T05:28:04;99446.84;;;5.97;92.66
16777;BME280;8505;49.456;8.164;2023-04-21T05:30:32;99448.47;;;6.33;92.31
16777;BME280;8505;49.456;8.164;2023-04-21T05:33:00;99455.25;;;6.18;92.18
16777;BME280;8505;49.456;8.164;2023-04-21T05:35:29;99458.56;;;6.20;93.17
16777;BME280;8505;49.456;8.164;2023-04-21T05:37:57;99454.19;;;6.11;93.62
16777;BME280;8505;49.456;8.164;2023-04-21T05:40:24;99460.03;;;5.87;93.12
16777;BME280;8505;49.456;8.164;2023-04-21T05:42:53;99455.59;;;6.05;93.03
16777;BME280;8505;49.456;8.164;2023-04-21T05:45:21;99457.72;;;6.02;93.47
16777;BME280;8505;49.456;8.164;2023-04-21T05:47:49;99458.56;;;6.20;91.44
16777;BME280;8505;49.456;8.164;2023-04-21T05:50:17;99468.31;;;5.83;94.04
16777;BME280;8505;49.456;8.164;2023-04-21T05:52:44;99468.47;;;5.91;92.74
16777;BME280;8505;49.456;8.164;2023-04-21T05:55:12;99469.44;;;6.43;91.29
16777;BME280;8505;49.456;8.164;2023-04-21T05:57:40;99467.34;;;5.84;93.11
16777;BME280;8505;49.456;8.164;2023-04-21T06:00:11;99462.72;;;6.48;91.20
16777;BME280;8505;49.456;8.164;2023-04-21T06:02:39;99467.56;;;6.35;90.37
16777;BME280;8505;49.456;8.164;2023-04-21T06:05:07;99466.91;;;6.16;91.30
16777;BME280;8505;49.456;8.164;2023-04-21T06:07:36;99466.97;;;6.41;90.99
16777;BME280;8505;49.456;8.164;2023-04-21T06:10:04;99459.06;;;6.24;91.07
16777;BME280;8505;49.456;8.164;2023-04-21T06:12:32;99466.28;;;6.04;92.61
16777;BME280;8505;49.456;8.164;2023-04-21T06:15:00;99466.56;;;6.01;93.15
16777;BME280;8505;49.456;8.164;2023-04-21T06:17:29;99479.66;;;6.11;92.20
16777;BME280;8505;49.456;8.164;2023-04-21T06:19:57;99475.00;;;6.04;93.53
16777;BME280;8505;49.456;8.164;2023-04-21T06:22:27;99468.31;;;6.28;93.25
16777;BME280;8505;49.456;8.164;2023-04-21T06:24:54;99467.25;;;6.38;93.12
16777;BME280;8505;49.456;8.164;2023-04-21T06:27:24;99457.19;;;6.52;91.86
16777;BME280;8505;49.456;8.164;2023-04-21T06:29:53;99470.09;;;6.63;91.16
16777;BME280;8505;49.456;8.164;2023-04-21T06:32:21;99482.13;;;6.65;90.61
16777;BME280;8505;49.456;8.164;2023-04-21T06:34:50;99484.91;;;6.64;90.48
16777;BME280;8505;49.456;8.164;2023-04-21T06:37:18;99481.94;;;6.67;90.52
16777;BME280;8505;49.456;8.164;2023-04-21T06:39:45;99487.63;;;6.54;90.14
16777;BME280;8505;49.456;8.164;2023-04-21T06:42:13;99490.25;;;6.54;90.06
16777;BME280;8505;49.456;8.164;2023-04-21T06:44:41;99496.31;;;6.55;91.11
16777;BME280;8505;49.456;8.164;2023-04-21T06:47:09;99490.25;;;6.54;91.58
16777;BME280;8505;49.456;8.164;2023-04-21T06:49:37;99476.72;;;6.31;90.32
16777;BME280;8505;49.456;8.164;2023-04-21T06:52:06;99484.34;;;6.34;91.83
16777;BME280;8505;49.456;8.164;2023-04-21T06:54:34;99486.25;;;6.50;90.63
16777;BME280;8505;49.456;8.164;2023-04-21T06:57:02;99488.44;;;6.19;91.70
16777;BME280;8505;49.456;8.164;2023-04-21T06:59:30;99493.19;;;6.51;91.58
16777;BME280;8505;49.456;8.164;2023-04-21T07:01:58;99490.69;;;6.49;91.06
16777;BME280;8505;49.456;8.164;2023-04-21T07:04:26;99489.69;;;6.68;90.91
16777;BME280;8505;49.456;8.164;2023-04-21T07:06:57;99492.13;;;6.44;91.78
16777;BME280;8505;49.456;8.164;2023-04-21T07:09:29;99483.16;;;6.98;92.09
16777;BME280;8505;49.456;8.164;2023-04-21T07:11:59;99488.16;;;7.35;90.58
16777;BME280;8505;49.456;8.164;2023-04-21T07:14:28;99489.84;;;7.86;88.29
16777;BME280;8505;49.456;8.164;2023-04-21T07:16:56;99480.50;;;8.00;84.68
16777;BME280;8505;49.456;8.164;2023-04-21T07:19:24;99483.41;;;8.55;83.17
16777;BME280;8505;49.456;8.164;2023-04-21T07:21:52;99474.97;;;8.92;81.30
16777;BME280;8505;49.456;8.164;2023-04-21T07:24:23;99481.47;;;9.75;79.82
16777;BME280;8505;49.456;8.164;2023-04-21T07:26:55;99470.34;;;10.65;75.82
16777;BME280;8505;49.456;8.164;2023-04-21T07:29:22;99481.25;;;10.47;74.45
16777;BME280;8505;49.456;8.164;2023-04-21T07:31:51;99469.44;;;10.35;74.74
16777;BME280;8505;49.456;8.164;2023-04-21T07:34:21;99468.94;;;11.29;75.61
16777;BME280;8505;49.456;8.164;2023-04-21T07:36:50;99468.03;;;10.99;75.84
16777;BME280;8505;49.456;8.164;2023-04-21T07:39:18;99466.16;;;11.81;71.72
16777;BME280;8505;49.456;8.164;2023-04-21T07:41:47;99462.34;;;11.10;73.96
16777;BME280;8505;49.456;8.164;2023-04-21T07:44:16;99461.72;;;12.03;68.03
16777;BME280;8505;49.456;8.164;2023-04-21T07:46:44;99458.50;;;12.29;64.78
16777;BME280;8505;49.456;8.164;2023-04-21T07:49:12;99459.34;;;12.50;61.25
16777;BME280;8505;49.456;8.164;2023-04-21T07:51:39;99450.03;;;12.61;62.98
16777;BME280;8505;49.456;8.164;2023-04-21T07:54:07;99445.81;;;12.94;60.31
16777;BME280;8505;49.456;8.164;2023-04-21T07:56:35;99441.25;;;13.16;62.47
16777;BME280;8505;49.456;8.164;2023-04-21T07:59:03;99454.38;;;12.69;63.35
16777;BME280;8505;49.456;8.164;2023-04-21T08:01:32;99447.72;;;13.35;61.24
16777;BME280;8505;49.456;8.164;2023-04-21T08:04:00;99443.16;;;14.24;60.48
16777;BME280;8505;49.456;8.164;2023-04-21T08:06:28;99439.50;;;15.04;55.80
16777;BME280;8505;49.456;8.164;2023-04-21T08:08:59;99433.97;;;13.72;57.28
16777;BME280;8505;49.456;8.164;2023-04-21T08:11:27;99430.34;;;13.87;57.13
16777;BME280;8505;49.456;8.164;2023-04-21T08:13:54;99422.47;;;13.18;59.21
16777;BME280;8505;49.456;8.164;2023-04-21T08:16:23;99422.75;;;13.84;58.23
16777;BME280;8505;49.456;8.164;2023-04-21T08:18:52;99425.16;;;14.59;56.39
16777;BME280;8505;49.456;8.164;2023-04-21T08:21:20;99430.09;;;14.62;56.53
16777;BME280;8505;49.456;8.164;2023-04-21T08:23:47;99429.69;;;15.69;54.34
16777;BME280;8505;49.456;8.164;2023-04-21T08:26:16;99420.16;;;15.28;55.43
16777;BME280;8505;49.456;8.164;2023-04-21T08:28:44;99414.78;;;15.55;51.58
16777;BME280;8505;49.456;8.164;2023-04-21T08:31:14;99417.53;;;15.15;53.35
16777;BME280;8505;49.456;8.164;2023-04-21T08:33:42;99415.25;;;15.12;53.88
16777;BME280;8505;49.456;8.164;2023-04-21T08:36:28;99416.84;;;16.29;50.70
16777;BME280;8505;49.456;8.164;2023-04-21T08:38:57;99407.22;;;17.02;49.72
16777;BME280;8505;49.456;8.164;2023-04-21T08:41:25;99405.09;;;16.61;50.90
16777;BME280;8505;49.456;8.164;2023-04-21T08:43:53;99410.69;;;15.32;53.54
16777;BME280;8505;49.456;8.164;2023-04-21T08:46:22;99407.59;;;15.55;51.92
16777;BME280;8505;49.456;8.164;2023-04-21T08:48:50;99409.38;;;14.77;54.12
16777;BME280;8505;49.456;8.164;2023-04-21T08:51:22;99415.44;;;15.88;52.41
16777;BME280;8505;49.456;8.164;2023-04-21T08:53:53;99411.84;;;16.39;50.24
16777;BME280;8505;49.456;8.164;2023-04-21T08:56:23;99406.06;;;15.72;53.30
16777;BME280;8505;49.456;8.164;2023-04-21T08:58:51;99407.00;;;15.33;53.57
16777;BME280;8505;49.456;8.164;2023-04-21T09:01:18;99389.53;;;17.19;49.82
16777;BME280;8505;49.456;8.164;2023-04-21T09:03:46;99402.31;;;16.74;50.50
16777;BME280;8505;49.456;8.164;2023-04-21T09:06:14;99400.00;;;15.97;53.39
16777;BME280;8505;49.456;8.164;2023-04-21T09:08:53;99402.19;;;14.91;55.76
16777;BME280;8505;49.456;8.164;2023-04-21T09:11:22;99404.25;;;14.69;55.64
16777;BME280;8505;49.456;8.164;2023-04-21T09:13:49;99396.28;;;15.47;55.54
16777;BME280;8505;49.456;8.164;2023-04-21T09:16:20;99392.69;;;15.21;55.81
16777;BME280;8505;49.456;8.164;2023-04-21T09:18:49;99397.03;;;15.73;53.90
16777;BME280;8505;49.456;8.164;2023-04-21T09:21:18;99390.94;;;16.29;51.82
16777;BME280;8505;49.456;8.164;2023-04-21T09:23:49;99387.72;;;15.25;54.46
16777;BME280;8505;49.456;8.164;2023-04-21T09:26:20;99388.88;;;14.65;56.63
16777;BME280;8505;49.456;8.164;2023-04-21T09:28:51;99386.00;;;15.50;54.25
16777;BME280;8505;49.456;8.164;2023-04-21T09:31:20;99379.31;;;16.42;52.40
16777;BME280;8505;49.456;8.164;2023-04-21T09:33:52;99391.81;;;16.23;51.52
16777;BME280;8505;49.456;8.164;2023-04-21T09:36:26;99383.88;;;15.78;51.85
16777;BME280;8505;49.456;8.164;2023-04-21T09:38:55;99384.47;;;16.12;51.23
16777;BME280;8505;49.456;8.164;2023-04-21T09:41:29;99380.72;;;16.19;51.26
16777;BME280;8505;49.456;8.164;2023-04-21T09:43:57;99377.53;;;15.73;53.19
16777;BME280;8505;49.456;8.164;2023-04-21T09:46:28;99375.03;;;16.90;51.23
16777;BME280;8505;49.456;8.164;2023-04-21T09:48:59;99360.13;;;17.97;48.27
16777;BME280;8505;49.456;8.164;2023-04-21T09:51:29;99363.88;;;17.12;48.95
16777;BME280;8505;49.456;8.164;2023-04-21T09:54:19;99360.91;;;17.38;48.16
16777;BME280;8505;49.456;8.164;2023-04-21T09:56:59;99357.41;;;17.01;49.49
16777;BME280;8505;49.456;8.164;2023-04-21T09:59:29;99353.63;;;18.05;48.43
16777;BME280;8505;49.456;8.164;2023-04-21T10:01:59;99346.47;;;17.39;47.99
16777;BME280;8505;49.456;8.164;2023-04-21T10:04:28;99350.16;;;17.56;47.74
16777;BME280;8505;49.456;8.164;2023-04-21T10:06:58;99349.47;;;16.94;49.28
16777;BME280;8505;49.456;8.164;2023-04-21T10:09:30;99345.28;;;16.80;51.66
16777;BME280;8505;49.456;8.164;2023-04-21T10:12:01;99339.19;;;17.10;49.25
16777;BME280;8505;49.456;8.164;2023-04-21T10:14:33;99332.47;;;16.39;50.19
16777;BME280;8505;49.456;8.164;2023-04-21T10:17:03;99319.19;;;17.30;49.79
16777;BME280;8505;49.456;8.164;2023-04-21T10:19:31;99323.16;;;17.76;47.75
16777;BME280;8505;49.456;8.164;2023-04-21T10:22:05;99306.34;;;18.10;48.36
16777;BME280;8505;49.456;8.164;2023-04-21T10:24:36;99311.78;;;18.04;47.75
16777;BME280;8505;49.456;8.164;2023-04-21T10:27:08;99313.13;;;17.53;50.17
16777;BME280;8505;49.456;8.164;2023-04-21T10:29:37;99313.94;;;18.25;49.32
16777;BME280;8505;49.456;8.164;2023-04-21T10:32:38;99303.31;;;19.40;45.35
16777;BME280;8505;49.456;8.164;2023-04-21T10:35:12;99295.56;;;18.75;46.80
16777;BME280;8505;49.456;8.164;2023-04-21T10:37:41;99299.72;;;18.83;47.13
16777;BME280;8505;49.456;8.164;2023-04-21T10:40:33;99312.38;;;18.06;48.48
16777;BME280;8505;49.456;8.164;2023-04-21T10:43:44;99302.34;;;19.18;47.09
16777;BME280;8505;49.456;8.164;2023-04-21T10:46:31;99301.00;;;18.22;48.47
16777;BME280;8505;49.456;8.164;2023-04-21T10:49:07;99297.94;;;17.95;49.53
16777;BME280;8505;49.456;8.164;2023-04-21T10:52:03;99289.25;;;18.70;47.48
16777;BME280;8505;49.456;8.164;2023-04-21T10:54:36;99313.44;;;18.05;49.37
16777;BME280;8505;49.456;8.164;2023-04-21T10:57:09;99300.06;;;17.63;50.54
16777;BME280;8505;49.456;8.164;2023-04-21T10:59:39;99302.19;;;17.55;50.61
16777;BME280;8505;49.456;8.164;2023-04-21T11:02:08;99302.19;;;18.26;47.97
16777;BME280;8505;49.456;8.164;2023-04-21T11:04:37;99291.00;;;18.76;47.11
16777;BME280;8505;49.456;8.164;2023-04-21T11:07:12;99285.09;;;19.42;46.48
16777;BME280;8505;49.456;8.164;2023-04-21T11:09:40;99277.06;;;17.97;48.92
16777;BME280;8505;49.456;8.164;2023-04-21T11:12:10;99279.81;;;18.55;47.31
16777;BME280;8505;49.456;8.164;2023-04-21T11:14:41;99276.53;;;18.65;46.30
16777;BME280;8505;49.456;8.164;2023-04-21T11:17:10;99279.19;;;19.28;46.14
16777;BME280;8505;49.456;8.164;2023-04-21T11:19:39;99287.03;;;18.43;45.48
16777;BME280;8505;49.456;8.164;2023-04-21T11:22:06;99277.34;;;18.42;46.52
16777;BME280;8505;49.456;8.164;2023-04-21T11:24:34;99277.47;;;18.71;47.03
16777;BME280;8505;49.456;8.164;2023-04-21T11:27:02;99266.41;;;19.19;45.83
16777;BME280;8505;49.456;8.164;2023-04-21T11:29:30;99264.19;;;19.72;44.26
16777;BME280;8505;49.456;8.164;2023-04-21T11:32:01;99266.50;;;19.24;45.39
16777;BME280;8505;49.456;8.164;2023-04-21T11:34:28;99265.09;;;18.11;49.34
16777;BME280;8505;49.456;8.164;2023-04-21T11:36:56;99265.09;;;19.61;46.32
16777;BME280;8505;49.456;8.164;2023-04-21T11:39:24;99249.22;;;20.27;44.33
16777;BME280;8505;49.456;8.164;2023-04-21T11:41:51;99258.63;;;19.34;45.73
16777;BME280;8505;49.456;8.164;2023-04-21T11:44:31;99260.81;;;19.09;46.39
16777;BME280;8505;49.456;8.164;2023-04-21T11:46:59;99256.03;;;19.39;45.17
16777;BME280;8505;49.456;8.164;2023-04-21T11:49:28;99259.94;;;19.31;44.67
16777;BME280;8505;49.456;8.164;2023-04-21T11:51:57;99257.03;;;19.21;45.48
16777;BME280;8505;49.456;8.164;2023-04-21T11:54:28;99250.59;;;19.62;42.56
16777;BME280;8505;49.456;8.164;2023-04-21T11:56:55;99258.09;;;19.77;44.14
16777;BME280;8505;49.456;8.164;2023-04-21T11:59:25;99243.25;;;20.25;42.94
16777;BME280;8505;49.456;8.164;2023-04-21T12:01:55;99244.84;;;20.04;43.18
16777;BME280;8505;49.456;8.164;2023-04-21T12:04:24;99246.06;;;20.68;41.33
16777;BME280;8505;49.456;8.164;2023-04-21T12:06:58;99245.09;;;20.36;42.99
16777;BME280;8505;49.456;8.164;2023-04-21T12:09:28;99238.88;;;20.95;40.78
16777;BME280;8505;49.456;8.164;2023-04-21T12:11:57;99229.63;;;21.08;41.41
16777;BME280;8505;49.456;8.164;2023-04-21T12:14:25;99236.38;;;20.67;41.49
16777;BME280;8505;49.456;8.164;2023-04-21T12:16:54;99231.72;;;20.41;42.74
16777;BME280;8505;49.456;8.164;2023-04-21T12:19:23;99234.38;;;19.57;42.60
16777;BME280;8505;49.456;8.164;2023-04-21T12:21:52;99229.44;;;20.16;43.08
16777;BME280;8505;49.456;8.164;2023-04-21T12:24:23;99226.31;;;20.79;41.78
16777;BME280;8505;49.456;8.164;2023-04-21T12:26:51;99223.09;;;21.26;41.40
16777;BME280;8505;49.456;8.164;2023-04-21T12:29:19;99224.06;;;19.83;45.48
16777;BME280;8505;49.456;8.164;2023-04-21T12:31:46;99225.97;;;20.76;42.86
16777;BME280;8505;49.456;8.164;2023-04-21T12:34:14;99224.47;;;21.07;41.87
16777;BME280;8505;49.456;8.164;2023-04-21T12:36:43;99211.97;;;20.74;44.03
16777;BME280;8505;49.456;8.164;2023-04-21T12:39:11;99204.31;;;21.09;42.66
16777;BME280;8505;49.456;8.164;2023-04-21T12:41:40;99199.78;;;21.15;41.33
16777;BME280;8505;49.456;8.164;2023-04-21T12:44:08;99211.34;;;20.67;42.29
16777;BME280;8505;49.456;8.164;2023-04-21T12:46:36;99211.88;;;20.47;42.50
16777;BME280;8505;49.456;8.164;2023-04-21T12:49:04;99208.72;;;21.42;42.11
16777;BME280;8505;49.456;8.164;2023-04-21T12:51:33;99205.31;;;21.25;40.83
16777;BME280;8505;49.456;8.164;2023-04-21T12:54:00;99208.91;;;21.35;42.57
16777;BME280;8505;49.456;8.164;2023-04-21T12:56:29;99213.84;;;20.73;43.71
16777;BME280;8505;49.456;8.164;2023-04-21T12:58:58;99196.22;;;20.61;43.62
16777;BME280;8505;49.456;8.164;2023-04-21T13:01:26;99193.13;;;20.52;44.02
16777;BME280;8505;49.456;8.164;2023-04-21T13:03:53;99181.78;;;21.15;43.21
16777;BME280;8505;49.456;8.164;2023-04-21T13:06:21;99184.28;;;21.22;42.46
16777;BME280;8505;49.456;8.164;2023-04-21T13:08:49;99183.00;;;22.30;41.01
16777;BME280;8505;49.456;8.164;2023-04-21T13:11:17;99179.81;;;21.64;41.03
16777;BME280;8505;49.456;8.164;2023-04-21T13:13:45;99184.66;;;21.09;42.66
16777;BME280;8505;49.456;8.164;2023-04-21T13:16:14;99189.91;;;21.47;41.82
16777;BME280;8505;49.456;8.164;2023-04-21T13:18:43;99182.09;;;21.19;42.67
16777;BME280;8505;49.456;8.164;2023-04-21T13:21:11;99180.31;;;20.59;43.40
16777;BME280;8505;49.456;8.164;2023-04-21T13:23:39;99180.09;;;21.36;42.13
16777;BME280;8505;49.456;8.164;2023-04-21T13:26:08;99172.34;;;21.71;41.45
16777;BME280;8505;49.456;8.164;2023-04-21T13:28:36;99175.22;;;21.33;41.66